Time;durP1;ratioP1;P1;durP2;ratioP2;P2;SDS_P1;SDS_P2;PMS_P1;PMS_P2;Temp;Humidity;BMP_temperature;BMP_pressure;BME280_temperature;BME280_humidity;BME280_pressure;Samples;Min_cycle;Max_cycle;Signal;HPM_P1;HPM_P2
2021/10/23 00:00:29;;;;;;;12.90;5.28;;;;;;;7.27;46.71;97116.67;1677167;85;26428;-82
2021/10/23 00:02:57;;;;;;;10.13;4.17;;;;;;;7.27;46.76;97126.89;1678601;84;26931;-82
2021/10/23 00:05:24;;;;;;;8.20;2.52;;;;;;;7.31;46.87;97134.05;1678969;84;25327;-83
2021/10/23 00:07:50;;;;;;;7.22;1.82;;;;;;;7.33;46.84;97136.86;1679026;85;25299;-82
2021/10/23 00:10:18;;;;;;;5.30;2.10;;;;;;;7.35;46.83;97133.47;1678697;84;26200;-82
2021/10/23 00:12:44;;;;;;;5.40;2.02;;;;;;;7.36;46.91;97143.19;1678752;84;26436;-82
2021/10/23 00:15:11;;;;;;;3.62;1.77;;;;;;;7.37;46.93;97149.36;1678753;85;27533;-82
2021/10/23 00:17:38;;;;;;;6.70;2.15;;;;;;;7.38;47.00;97149.67;1678698;84;26422;-82
2021/10/23 00:20:06;;;;;;;4.37;1.60;;;;;;;7.40;47.01;97140.91;1678733;84;25833;-82
2021/10/23 00:22:32;;;;;;;6.35;2.10;;;;;;;7.42;47.02;97151.78;1678973;84;25778;-82
2021/10/23 00:25:00;;;;;;;5.65;2.10;;;;;;;7.44;46.94;97152.42;1678964;85;25786;-83
2021/10/23 00:27:28;;;;;;;3.65;2.17;;;;;;;7.47;46.89;97154.72;1678693;84;26892;-82
2021/10/23 00:29:55;;;;;;;4.65;2.12;;;;;;;7.46;46.89;97169.17;1678625;84;25768;-82
2021/10/23 00:32:22;;;;;;;9.28;2.60;;;;;;;7.45;46.95;97162.14;1678414;84;26433;-82
2021/10/23 00:34:48;;;;;;;6.15;2.85;;;;;;;7.45;46.93;97163.48;1678696;84;26406;-82
2021/10/23 00:37:15;;;;;;;10.08;2.77;;;;;;;7.44;46.99;97173.91;1678844;85;25882;-82
2021/10/23 00:39:41;;;;;;;7.30;2.52;;;;;;;7.43;46.98;97172.23;1678676;84;27415;-82
2021/10/23 00:42:08;;;;;;;6.08;2.47;;;;;;;7.41;47.03;97164.89;1678407;84;25333;-82
2021/10/23 00:44:38;;;;;;;5.83;2.10;;;;;;;7.39;47.14;97168.28;1678862;84;25719;-82
2021/10/23 00:47:16;;;;;;;6.03;2.20;;;;;;;7.37;47.19;97166.30;1678692;84;25929;-82
2021/10/23 00:49:45;;;;;;;8.00;2.40;;;;;;;7.34;47.34;97161.34;1678805;84;25756;-82
2021/10/23 00:52:12;;;;;;;4.60;2.35;;;;;;;7.30;47.44;97164.09;1678691;84;28191;-82
2021/10/23 00:54:40;;;;;;;5.35;2.08;;;;;;;7.29;47.56;97163.78;1678450;84;25286;-82
2021/10/23 00:57:07;;;;;;;4.87;1.72;;;;;;;7.28;47.70;97171.52;1678794;84;25919;-82
2021/10/23 00:59:35;;;;;;;5.33;1.72;;;;;;;7.26;47.76;97162.81;1678708;85;26048;-83
2021/10/23 01:02:03;;;;;;;9.35;2.95;;;;;;;7.25;47.85;97169.21;1678865;84;25826;-82
2021/10/23 01:04:30;;;;;;;9.83;3.62;;;;;;;7.24;47.87;97174.30;1678782;84;27395;-82
2021/10/23 01:06:57;;;;;;;8.60;4.12;;;;;;;7.24;47.99;97179.66;1678683;84;25796;-82
2021/10/23 01:09:24;;;;;;;6.53;2.98;;;;;;;7.22;48.11;97185.23;1678690;84;25886;-82
2021/10/23 01:11:51;;;;;;;4.70;1.87;;;;;;;7.24;48.26;97191.20;1678780;84;26691;-82
2021/10/23 01:14:22;;;;;;;4.85;1.82;;;;;;;7.24;48.23;97185.03;1678748;84;26440;-82
2021/10/23 01:16:51;;;;;;;9.30;2.35;;;;;;;7.23;48.40;97188.23;1678860;84;27376;-82
2021/10/23 01:19:19;;;;;;;6.37;2.17;;;;;;;7.23;48.36;97182.86;1678632;84;25819;-82
2021/10/23 01:21:49;;;;;;;3.55;1.70;;;;;;;7.25;48.57;97174.58;1678782;84;26412;-82
2021/10/23 01:24:17;;;;;;;8.78;2.27;;;;;;;7.26;48.62;97168.70;1678892;84;25850;-82
2021/10/23 01:26:44;;;;;;;5.05;1.85;;;;;;;7.25;48.65;97163.84;1678682;85;25776;-83
2021/10/23 01:29:14;;;;;;;10.88;3.17;;;;;;;7.26;48.64;97168.19;1678724;84;27407;-82
2021/10/23 01:31:45;;;;;;;8.68;2.90;;;;;;;7.25;48.67;97182.64;1678661;84;25883;-82
2021/10/23 01:34:19;;;;;;;6.80;2.35;;;;;;;7.24;48.77;97182.34;1678712;84;25871;-82
2021/10/23 01:36:57;;;;;;;5.17;1.98;;;;;;;7.23;48.88;97181.52;1678714;84;25682;-82
2021/10/23 01:39:24;;;;;;;4.12;1.85;;;;;;;7.21;48.94;97191.62;1678941;84;26350;-82
2021/10/23 01:41:53;;;;;;;10.45;3.55;;;;;;;7.20;49.00;97203.37;1678495;84;27422;-82
2021/10/23 01:44:26;;;;;;;10.78;3.67;;;;;;;7.21;49.07;97216.29;1678634;84;25846;-82
2021/10/23 01:46:53;;;;;;;8.55;3.83;;;;;;;7.21;49.17;97218.97;1678666;85;25860;-81
2021/10/23 01:49:20;;;;;;;11.35;3.30;;;;;;;7.22;49.23;97221.98;1678429;84;25777;-82
2021/10/23 01:51:46;;;;;;;7.17;2.55;;;;;;;7.22;49.24;97213.41;1678740;84;25869;-82
2021/10/23 01:54:13;;;;;;;2.95;1.65;;;;;;;7.26;49.51;97223.73;1678726;84;28338;-82
2021/10/23 01:56:41;;;;;;;4.45;1.50;;;;;;;7.28;49.51;97226.55;1678645;85;25816;-82
2021/10/23 01:59:09;;;;;;;4.03;1.72;;;;;;;7.29;49.67;97224.19;1678551;84;25812;-82
2021/10/23 02:01:36;;;;;;;3.17;1.50;;;;;;;7.32;49.74;97233.20;1678401;84;26673;-82
2021/10/23 02:04:03;;;;;;;5.15;2.08;;;;;;;7.36;49.83;97242.54;1678452;85;25784;-83
2021/10/23 02:06:30;;;;;;;4.85;1.52;;;;;;;7.40;49.85;97233.56;1678793;84;26803;-82
2021/10/23 02:08:58;;;;;;;4.33;1.62;;;;;;;7.44;49.85;97238.36;1678390;85;25751;-83
2021/10/23 02:11:25;;;;;;;7.90;2.05;;;;;;;7.50;49.90;97246.95;1678658;84;25902;-82
2021/10/23 02:13:52;;;;;;;5.55;1.77;;;;;;;7.56;50.12;97236.78;1678719;84;25744;-84
2021/10/23 02:16:18;;;;;;;3.98;2.08;;;;;;;7.61;50.01;97241.55;1678755;85;25763;-81
2021/10/23 02:18:45;;;;;;;5.47;1.70;;;;;;;7.65;50.04;97242.00;1678728;84;27605;-82
2021/10/23 02:21:13;;;;;;;3.37;1.30;;;;;;;7.69;50.04;97249.99;1678832;85;26194;-81
2021/10/23 02:23:40;;;;;;;5.22;1.60;;;;;;;7.70;50.14;97253.00;1678785;84;26072;-82
2021/10/23 02:26:06;;;;;;;5.83;1.62;;;;;;;7.72;50.11;97253.64;1678585;84;25867;-81
2021/10/23 02:28:33;;;;;;;4.40;1.80;;;;;;;7.75;50.16;97247.33;1678660;84;25848;-81
2021/10/23 02:31:00;;;;;;;8.38;1.85;;;;;;;7.78;50.16;97255.00;1678712;84;28125;-82
2021/10/23 02:33:26;;;;;;;7.85;2.02;;;;;;;7.79;50.35;97262.55;1678751;85;25786;-82
2021/10/23 02:35:53;;;;;;;2.65;1.55;;;;;;;7.78;50.43;97264.41;1678742;84;25271;-80
2021/10/23 02:38:20;;;;;;;8.73;1.95;;;;;;;7.79;50.39;97266.08;1678668;84;26462;-81
2021/10/23 02:40:46;;;;;;;6.05;1.55;;;;;;;7.81;50.46;97270.74;1678623;84;25837;-82
2021/10/23 02:43:13;;;;;;;5.65;1.40;;;;;;;7.83;50.53;97266.52;1678618;84;27311;-82
2021/10/23 02:45:40;;;;;;;4.95;1.60;;;;;;;7.85;50.50;97280.56;1678588;84;25738;-82
2021/10/23 02:48:06;;;;;;;2.40;1.37;;;;;;;7.85;50.47;97275.19;1678829;84;26442;-82
2021/10/23 02:50:33;;;;;;;3.10;1.50;;;;;;;7.87;50.51;97278.52;1678420;84;26496;-81
2021/10/23 02:52:59;;;;;;;5.25;1.87;;;;;;;7.87;50.53;97279.34;1678768;84;25796;-82
2021/10/23 02:55:27;;;;;;;5.67;2.08;;;;;;;7.86;50.62;97286.25;1678654;84;26949;-82
2021/10/23 02:57:53;;;;;;;4.25;2.00;;;;;;;7.85;50.76;97283.25;1678618;85;25892;-81
2021/10/23 03:00:21;;;;;;;4.35;1.65;;;;;;;7.87;50.75;97286.58;1678619;84;25378;-82
2021/10/23 03:02:49;;;;;;;4.80;1.65;;;;;;;7.85;50.79;97283.25;1678769;84;26680;-81
2021/10/23 03:05:18;;;;;;;2.37;1.42;;;;;;;7.86;50.85;97287.59;1678627;84;25838;-81
2021/10/23 03:07:45;;;;;;;3.45;1.47;;;;;;;7.84;50.94;97301.77;1660453;85;27570;-81
2021/10/23 03:10:12;;;;;;;4.62;1.70;;;;;;;7.79;51.06;97305.03;1678504;84;25702;-81
2021/10/23 03:12:39;;;;;;;5.70;1.60;;;;;;;7.74;51.17;97298.06;1678724;84;25827;-82
2021/10/23 03:15:07;;;;;;;6.55;1.90;;;;;;;7.74;51.28;97314.19;1678761;84;26578;-81
2021/10/23 03:17:33;;;;;;;8.18;1.77;;;;;;;7.77;51.39;97310.28;1678763;85;25760;-81
2021/10/23 03:20:01;;;;;;;3.33;1.30;;;;;;;7.75;51.37;97315.02;1678679;84;28414;-81
2021/10/23 03:22:28;;;;;;;5.85;1.80;;;;;;;7.73;51.59;97325.16;1678539;84;25836;-83
2021/10/23 03:24:55;;;;;;;5.22;1.45;;;;;;;7.70;51.62;97328.22;1678680;85;25756;-81
2021/10/23 03:27:23;;;;;;;5.30;1.72;;;;;;;7.70;51.72;97340.31;1678700;84;25824;-82
2021/10/23 03:29:50;;;;;;;4.03;1.25;;;;;;;7.70;51.90;97339.80;1678689;84;25829;-82
2021/10/23 03:32:17;;;;;;;2.25;1.35;;;;;;;7.69;52.00;97338.14;1678533;84;27378;-81
2021/10/23 03:34:44;;;;;;;4.90;1.40;;;;;;;7.67;52.05;97337.50;1678614;84;25829;-81
2021/10/23 03:37:10;;;;;;;3.17;1.40;;;;;;;7.68;52.26;97345.05;1678668;84;25877;-82
2021/10/23 03:39:39;;;;;;;5.35;1.50;;;;;;;7.66;52.23;97353.80;1678722;84;25819;-82
2021/10/23 03:42:06;;;;;;;3.65;1.30;;;;;;;7.64;52.16;97363.91;1678876;85;25696;-81
2021/10/23 03:44:33;;;;;;;2.52;1.30;;;;;;;7.58;52.08;97368.22;1678353;84;27542;-84
2021/10/23 03:47:00;;;;;;;4.50;1.60;;;;;;;7.53;52.12;97376.02;1678755;85;25773;-82
2021/10/23 03:49:27;;;;;;;4.00;2.30;;;;;;;7.51;52.17;97380.23;1678463;85;25365;-86
2021/10/23 03:51:54;;;;;;;2.17;1.32;;;;;;;7.50;52.01;97385.28;1678801;84;26266;-82
2021/10/23 03:54:20;;;;;;;5.35;1.52;;;;;;;7.43;52.01;97380.38;1678860;84;25773;-81
2021/10/23 03:56:47;;;;;;;4.37;1.20;;;;;;;7.38;52.04;97391.35;1678862;84;28266;-84
2021/10/23 03:59:14;;;;;;;2.95;1.32;;;;;;;7.34;52.06;97390.09;1678617;84;26452;-81
2021/10/23 04:01:40;;;;;;;5.75;1.32;;;;;;;7.31;51.96;97389.96;1673938;85;25724;-82
2021/10/23 04:04:08;;;;;;;5.03;1.45;;;;;;;7.27;51.97;97398.06;1671427;84;25793;-82
2021/10/23 04:06:35;;;;;;;4.03;1.25;;;;;;;7.23;52.15;97408.89;1671397;85;25736;-83
2021/10/23 04:09:01;;;;;;;1.92;1.17;;;;;;;7.19;52.10;97406.25;1671504;84;27371;-82
2021/10/23 04:11:28;;;;;;;5.05;1.07;;;;;;;7.14;52.03;97411.34;1671522;85;25871;-84
2021/10/23 04:13:54;;;;;;;7.05;1.32;;;;;;;7.08;51.86;97407.58;1671446;84;25835;-82
2021/10/23 04:16:21;;;;;;;3.27;1.00;;;;;;;7.00;51.77;97408.21;1671453;84;25780;-81
2021/10/23 04:18:48;;;;;;;2.58;1.20;;;;;;;6.96;51.68;97405.58;1671549;84;25749;-81
2021/10/23 04:21:15;;;;;;;11.73;1.50;;;;;;;6.95;51.64;97420.01;1671404;84;27538;-81
2021/10/23 04:23:41;;;;;;;2.92;1.20;;;;;;;6.91;51.58;97410.16;1671575;84;25737;-81
2021/10/23 04:26:08;;;;;;;7.45;1.27;;;;;;;6.84;51.55;97414.11;1671492;85;25773;-82
2021/10/23 04:28:35;;;;;;;2.47;1.05;;;;;;;6.83;51.59;97417.81;1671445;84;26396;-83
2021/10/23 04:31:01;;;;;;;5.22;1.00;;;;;;;6.83;51.60;97415.13;1671345;84;25732;-82
2021/10/23 04:33:29;;;;;;;5.53;1.30;;;;;;;6.82;51.64;97420.68;1671441;84;27379;-82
2021/10/23 04:35:56;;;;;;;6.05;1.27;;;;;;;6.78;51.67;97424.23;1671493;85;25781;-81
2021/10/23 04:38:24;;;;;;;5.00;1.02;;;;;;;6.75;51.74;97427.82;1671426;84;25823;-85
2021/10/23 04:40:50;;;;;;;5.62;1.32;;;;;;;6.70;51.87;97431.05;1671346;84;25700;-81
2021/10/23 04:43:17;;;;;;;4.12;1.22;;;;;;;6.68;51.94;97432.25;1671450;85;25705;-81
2021/10/23 04:45:44;;;;;;;5.85;1.40;;;;;;;6.65;52.02;97436.12;1671503;85;27489;-81
2021/10/23 04:48:10;;;;;;;8.75;1.25;;;;;;;6.64;52.15;97434.46;1671233;85;26425;-81
2021/10/23 04:50:37;;;;;;;2.85;1.30;;;;;;;6.61;52.11;97440.22;1671262;85;25275;-81
2021/10/23 04:53:04;;;;;;;3.52;1.17;;;;;;;6.54;52.33;97451.86;1671457;85;25789;-81
2021/10/23 04:55:30;;;;;;;4.17;1.17;;;;;;;6.57;52.57;97446.97;1671425;85;25808;-82
2021/10/23 04:57:57;;;;;;;6.47;2.15;;;;;;;6.52;52.56;97449.36;1671398;84;27430;-80
2021/10/23 05:00:25;;;;;;;4.42;1.90;;;;;;;6.48;52.63;97459.64;1671394;84;25899;-81
2021/10/23 05:02:52;;;;;;;6.12;2.50;;;;;;;6.48;52.77;97453.44;1671601;84;25876;-79
2021/10/23 05:05:19;;;;;;;4.37;1.57;;;;;;;6.47;52.71;97456.63;1671538;85;25774;-82
2021/10/23 05:07:46;;;;;;;9.55;2.60;;;;;;;6.48;52.80;97457.47;1671472;84;25751;-82
2021/10/23 05:10:15;;;;;;;4.65;1.30;;;;;;;6.51;52.73;97463.81;1671434;84;26968;-82
2021/10/23 05:12:42;;;;;;;4.72;1.30;;;;;;;6.54;52.82;97465.27;1671258;84;25829;-79
2021/10/23 05:15:09;;;;;;;4.83;1.05;;;;;;;6.58;53.02;97471.43;1671484;84;25851;-82
2021/10/23 05:17:36;;;;;;;2.62;1.12;;;;;;;6.61;53.22;97476.43;1671198;85;26216;-80
2021/10/23 05:20:04;;;;;;;3.08;0.98;;;;;;;6.64;53.80;97473.36;1670988;85;25698;-82
2021/10/23 05:22:32;;;;;;;1.87;0.85;;;;;;;6.65;53.23;97483.07;1657733;85;27403;-82
2021/10/23 05:24:59;;;;;;;4.75;1.12;;;;;;;6.61;53.07;97480.45;1657583;85;25785;-82
2021/10/23 05:27:26;;;;;;;5.30;0.93;;;;;;;6.54;53.21;97488.06;1657680;85;25289;-82
2021/10/23 05:29:53;;;;;;;4.28;1.10;;;;;;;6.51;53.56;97497.33;1657532;85;26509;-81
2021/10/23 05:32:20;;;;;;;4.05;1.42;;;;;;;6.47;53.61;97492.83;1692346;83;25680;-82
2021/10/23 05:34:46;;;;;;;3.65;1.20;;;;;;;6.47;53.64;97503.56;1692272;83;27359;-82
2021/10/23 05:37:13;;;;;;;4.78;1.37;;;;;;;6.50;53.72;97498.34;1692297;83;25799;-80
2021/10/23 05:39:40;;;;;;;5.15;1.30;;;;;;;6.50;53.90;97495.16;1692271;83;25770;-81
2021/10/23 05:42:07;;;;;;;3.85;1.40;;;;;;;6.49;53.91;97505.55;1696679;84;26412;-79
2021/10/23 05:44:34;;;;;;;4.55;1.32;;;;;;;6.47;54.02;97508.92;1695821;83;25730;-81
2021/10/23 05:47:01;;;;;;;3.08;0.95;;;;;;;6.47;54.13;97508.09;1692359;84;27602;-82
2021/10/23 05:49:27;;;;;;;4.05;1.50;;;;;;;6.48;54.22;97512.44;1692223;83;26299;-81
2021/10/23 05:51:54;;;;;;;5.35;1.47;;;;;;;6.46;54.20;97515.30;1692110;83;25930;-81
2021/10/23 05:54:21;;;;;;;3.40;1.27;;;;;;;6.44;54.25;97524.53;1692289;83;26685;-83
2021/10/23 05:56:48;;;;;;;5.55;1.32;;;;;;;6.44;54.24;97528.55;1692367;83;25747;-81
2021/10/23 05:59:15;;;;;;;6.15;2.05;;;;;;;6.42;54.29;97526.56;1692364;83;27516;-80
2021/10/23 06:01:44;;;;;;;2.50;1.02;;;;;;;6.39;54.36;97522.42;1691177;83;25802;-81
2021/10/23 06:04:14;;;;;;;3.70;1.37;;;;;;;6.37;54.38;97530.31;1690038;84;25763;-81
2021/10/23 06:06:41;;;;;;;6.62;1.77;;;;;;;6.40;54.53;97535.32;1690110;84;26487;-82
2021/10/23 06:09:08;;;;;;;8.65;2.50;;;;;;;6.41;54.40;97536.95;1690027;84;25816;-82
2021/10/23 06:11:35;;;;;;;7.40;1.90;;;;;;;6.37;54.49;97543.21;1690204;84;27531;-82
2021/10/23 06:14:03;;;;;;;8.00;2.37;;;;;;;6.38;54.58;97545.39;1690039;84;25715;-82
2021/10/23 06:16:30;;;;;;;7.47;2.80;;;;;;;6.40;54.61;97552.75;1690072;84;25822;-81
2021/10/23 06:18:56;;;;;;;9.55;2.65;;;;;;;6.41;54.71;97557.06;1689906;84;26509;-82
2021/10/23 06:21:23;;;;;;;8.30;3.17;;;;;;;6.38;54.75;97566.33;1690161;84;25859;-82
2021/10/23 06:23:49;;;;;;;7.03;3.00;;;;;;;6.36;54.87;97574.22;1690088;84;28238;-82
2021/10/23 06:26:16;;;;;;;8.00;2.00;;;;;;;6.34;54.96;97582.44;1690089;84;25704;-82
2021/10/23 06:28:43;;;;;;;5.80;2.08;;;;;;;6.37;54.88;97582.09;1690171;84;25713;-82
2021/10/23 06:31:09;;;;;;;5.80;2.20;;;;;;;6.39;55.21;97592.13;1689957;84;26293;-82
2021/10/23 06:33:36;;;;;;;6.72;2.40;;;;;;;6.38;55.38;97589.62;1690099;84;25760;-82
2021/10/23 06:36:03;;;;;;;9.58;2.62;;;;;;;6.41;55.33;97595.95;1690003;84;27422;-82
2021/10/23 06:38:30;;;;;;;8.40;2.62;;;;;;;6.39;55.24;97604.70;1690101;84;25807;-81
2021/10/23 06:40:56;;;;;;;7.42;2.72;;;;;;;6.40;55.46;97612.54;1692087;84;26488;-80
2021/10/23 06:43:25;;;;;;;6.83;1.70;;;;;;;6.37;55.26;97599.52;1694285;84;25744;-82
2021/10/23 06:45:52;;;;;;;9.78;3.62;;;;;;;6.37;55.29;97614.27;1694338;83;25812;-83
2021/10/23 06:48:19;;;;;;;7.67;3.40;;;;;;;6.40;55.42;97615.77;1684398;84;27391;-82
2021/10/23 06:50:46;;;;;;;8.00;2.52;;;;;;;6.45;55.35;97622.23;1684246;84;25764;-81
2021/10/23 06:53:12;;;;;;;7.75;1.95;;;;;;;6.44;55.12;97633.14;1684176;84;26437;-81
2021/10/23 06:55:39;;;;;;;7.58;2.72;;;;;;;6.45;55.14;97621.40;1684408;84;25962;-81
2021/10/23 06:58:05;;;;;;;8.43;2.20;;;;;;;6.47;55.17;97630.94;1684392;84;26299;-82
2021/10/23 07:00:32;;;;;;;10.13;2.65;;;;;;;6.52;55.21;97632.25;1684252;84;27436;-81
2021/10/23 07:02:59;;;;;;;4.97;2.05;;;;;;;6.58;55.17;97643.59;1685526;84;25851;-82
2021/10/23 07:05:27;;;;;;;8.33;2.37;;;;;;;6.63;55.21;97646.58;1686381;84;25790;-82
2021/10/23 07:07:53;;;;;;;11.45;3.35;;;;;;;6.67;55.11;97646.52;1686352;84;25821;-82
2021/10/23 07:10:21;;;;;;;11.65;3.08;;;;;;;6.67;54.90;97639.81;1686461;84;25770;-82
2021/10/23 07:12:48;;;;;;;9.23;2.67;;;;;;;6.69;54.96;97646.67;1686308;84;28261;-81
2021/10/23 07:15:15;;;;;;;7.65;1.98;;;;;;;6.72;54.90;97651.69;1686175;84;25849;-81
2021/10/23 07:17:42;;;;;;;6.40;1.95;;;;;;;6.75;55.14;97643.28;1686347;84;25743;-82
2021/10/23 07:20:11;;;;;;;6.90;2.37;;;;;;;6.82;54.91;97648.73;1686013;84;25747;-82
2021/10/23 07:22:38;;;;;;;11.55;2.60;;;;;;;6.84;54.79;97644.03;1679908;84;25844;-81
2021/10/23 07:25:06;;;;;;;8.28;1.82;;;;;;;6.88;54.77;97648.03;1681671;84;28038;-82
2021/10/23 07:27:32;;;;;;;7.80;2.15;;;;;;;6.93;54.46;97641.59;1683373;84;25857;-81
2021/10/23 07:29:59;;;;;;;7.55;2.02;;;;;;;7.02;54.41;97649.88;1679843;84;25265;-80
2021/10/23 07:32:26;;;;;;;9.60;1.70;;;;;;;7.10;54.28;97647.13;1679739;84;25926;-82
2021/10/23 07:34:52;;;;;;;11.97;2.87;;;;;;;7.17;53.88;97652.59;1679898;84;25658;-81
2021/10/23 07:37:19;;;;;;;10.70;2.40;;;;;;;7.21;53.83;97652.55;1679695;84;27411;-82
2021/10/23 07:39:46;;;;;;;7.72;1.67;;;;;;;7.29;53.53;97656.98;1679776;84;25548;-82
2021/10/23 07:42:12;;;;;;;9.53;1.40;;;;;;;7.35;53.37;97665.67;1686369;84;25700;-82
2021/10/23 07:44:39;;;;;;;6.78;1.50;;;;;;;7.39;53.13;97658.38;1684976;84;25914;-82
2021/10/23 07:47:05;;;;;;;10.93;2.02;;;;;;;7.43;53.09;97661.03;1679856;84;26723;-81
2021/10/23 07:49:32;;;;;;;5.75;2.00;;;;;;;7.52;52.97;97656.39;1679858;84;27955;-81
2021/10/23 07:51:58;;;;;;;33.67;10.60;;;;;;;7.59;52.89;97649.27;1679697;84;25671;-82
2021/10/23 07:54:25;;;;;;;16.80;6.12;;;;;;;7.69;52.61;97657.88;1679784;84;25791;-83
2021/10/23 07:56:51;;;;;;;15.18;5.30;;;;;;;7.81;52.51;97652.84;1679731;84;25717;-82
2021/10/23 07:59:18;;;;;;;9.13;3.70;;;;;;;7.85;52.54;97652.27;1679871;84;25775;-82
2021/10/23 08:01:45;;;;;;;6.67;1.98;;;;;;;7.91;52.55;97646.16;1680505;84;28450;-81
2021/10/23 08:04:11;;;;;;;8.65;3.08;;;;;;;7.99;52.44;97653.27;1687067;83;25851;-81
2021/10/23 08:06:39;;;;;;;8.43;1.57;;;;;;;8.11;52.40;97648.22;1687199;83;25862;-85
2021/10/23 08:09:11;;;;;;;15.15;5.80;;;;;;;8.26;52.18;97652.55;1687087;83;25740;-80
2021/10/23 08:11:35;;;;;;;9.63;2.35;;;;;;;8.26;51.92;97661.95;1686639;83;25804;-82
2021/10/23 08:14:01;;;;;;;7.03;1.62;;;;;;;8.26;51.75;97660.61;1687247;83;28187;-80
2021/10/23 08:16:28;;;;;;;5.35;2.15;;;;;;;8.25;51.51;97656.25;1687229;83;25740;-82
2021/10/23 08:18:55;;;;;;;6.03;1.62;;;;;;;8.32;51.52;97665.78;1686866;84;25882;-81
2021/10/23 08:21:21;;;;;;;3.20;1.32;;;;;;;8.27;51.45;97673.04;1687110;83;25811;-83
2021/10/23 08:23:48;;;;;;;7.50;1.70;;;;;;;8.26;51.20;97671.88;1687261;83;25715;-82
2021/10/23 08:26:14;;;;;;;6.85;1.52;;;;;;;8.22;51.11;97675.96;1687081;83;27379;-81
2021/10/23 08:28:41;;;;;;;4.40;1.60;;;;;;;8.25;51.17;97677.77;1687117;83;25867;-81
2021/10/23 08:31:08;;;;;;;4.70;1.50;;;;;;;8.32;50.91;97686.47;1687244;83;25760;-83
2021/10/23 08:33:34;;;;;;;6.58;1.75;;;;;;;8.39;50.90;97690.88;1687206;83;25789;-81
2021/10/23 08:36:01;;;;;;;7.78;1.72;;;;;;;8.42;50.88;97693.71;1687222;83;25787;-82
2021/10/23 08:38:27;;;;;;;5.97;1.85;;;;;;;8.38;50.50;97686.52;1687199;83;27470;-86
2021/10/23 08:40:55;;;;;;;8.65;1.87;;;;;;;8.32;50.55;97691.34;1689086;83;25852;-82
2021/10/23 08:43:23;;;;;;;11.85;2.12;;;;;;;8.26;50.36;97687.50;1685146;83;26468;-82
2021/10/23 08:45:54;;;;;;;7.97;2.35;;;;;;;8.19;50.47;97695.19;1698112;83;25696;-82
2021/10/23 08:48:22;;;;;;;5.03;1.87;;;;;;;8.21;50.37;97695.84;1698416;83;25548;-81
2021/10/23 08:50:50;;;;;;;4.28;1.80;;;;;;;8.29;50.38;97696.55;1698073;84;28254;-82
2021/10/23 08:53:17;;;;;;;7.85;1.80;;;;;;;8.33;50.18;97704.27;1698046;83;26438;-82
2021/10/23 08:55:43;;;;;;;5.42;1.37;;;;;;;8.32;50.29;97695.88;1698195;83;25906;-83
2021/10/23 08:58:11;;;;;;;7.12;2.15;;;;;;;8.31;50.28;97705.77;1698292;84;25735;-81
2021/10/23 09:00:38;;;;;;;6.37;2.22;;;;;;;8.32;50.20;97706.64;1698114;83;25928;-80
2021/10/23 09:03:05;;;;;;;8.33;2.00;;;;;;;8.34;50.20;97705.91;1700571;83;28018;-82
2021/10/23 09:05:33;;;;;;;6.70;1.98;;;;;;;8.35;50.30;97700.86;1703296;83;26098;-82
2021/10/23 09:08:00;;;;;;;6.70;1.87;;;;;;;8.35;50.31;97706.23;1703380;84;25938;-82
2021/10/23 09:10:30;;;;;;;7.28;1.80;;;;;;;8.42;50.70;97709.85;1703434;83;26727;-80
2021/10/23 09:13:07;;;;;;;6.50;1.85;;;;;;;8.44;50.62;97721.27;1703552;84;25711;-81
2021/10/23 09:15:37;;;;;;;8.18;1.90;;;;;;;8.43;50.55;97720.94;1703381;84;27445;-85
2021/10/23 09:18:05;;;;;;;8.85;2.02;;;;;;;8.37;50.21;97710.41;1703291;83;25911;-82
2021/10/23 09:20:41;;;;;;;6.90;2.27;;;;;;;8.37;50.15;97715.79;1703150;83;25777;-83
2021/10/23 09:23:21;;;;;;;8.13;2.17;;;;;;;8.43;50.57;97718.25;1703391;83;26416;-81
2021/10/23 09:25:51;;;;;;;8.58;2.12;;;;;;;8.58;50.13;97726.57;1703580;84;25778;-80
2021/10/23 09:28:31;;;;;;;8.43;1.85;;;;;;;8.67;49.97;97731.34;1703405;83;27378;-80
2021/10/23 09:30:58;;;;;;;8.95;2.25;;;;;;;8.72;49.99;97728.89;1703263;83;25835;-82
2021/10/23 09:33:27;;;;;;;8.18;1.62;;;;;;;8.69;49.63;97731.98;1702299;83;25771;-81
2021/10/23 09:36:03;;;;;;;6.35;2.37;;;;;;;8.68;49.09;97737.55;1686944;84;25797;-81
2021/10/23 09:38:33;;;;;;;10.30;3.00;;;;;;;8.66;49.01;97732.36;1686702;84;25539;-81
2021/10/23 09:41:20;;;;;;;6.67;1.90;;;;;;;8.66;48.82;97740.44;1695208;84;27397;-82
2021/10/23 09:43:47;;;;;;;4.62;1.30;;;;;;;8.70;48.62;97737.66;1703284;83;25911;-82
2021/10/23 09:46:15;;;;;;;7.35;1.65;;;;;;;8.71;48.79;97728.56;1703543;83;25775;-82
2021/10/23 09:48:48;;;;;;;5.87;1.52;;;;;;;8.69;48.79;97732.50;1703526;83;26232;-80
2021/10/23 09:51:26;;;;;;;;;;;;;;;8.65;48.78;97736.08;1706106;83;25703;-82
2021/10/23 09:53:59;;;;;;;6.33;1.52;;;;;;;8.64;48.69;97727.68;1703473;83;27388;-80
2021/10/23 09:56:35;;;;;;;6.25;1.47;;;;;;;8.62;48.90;97728.38;1703330;84;25720;-82
2021/10/23 09:59:08;;;;;;;9.10;1.77;;;;;;;8.83;48.89;97720.30;1703400;83;26420;-80
2021/10/23 10:01:44;;;;;;;5.12;1.50;;;;;;;9.02;48.68;97725.56;1703427;83;26331;-81
2021/10/23 10:04:12;;;;;;;;;;;;;;;9.27;48.64;97720.59;1704182;82;25746;-81
2021/10/23 10:06:42;;;;;;;8.60;1.92;;;;;;;9.65;48.52;97724.61;1703447;83;28323;-81
2021/10/23 10:09:22;;;;;;;13.22;3.27;;;;;;;10.03;47.95;97707.98;1703295;83;25678;-81
2021/10/23 10:11:53;;;;;;;12.33;2.33;;;;;;;10.15;46.96;97706.37;1703396;83;25782;-81
2021/10/23 10:14:27;;;;;;;10.63;2.30;;;;;;;10.28;47.07;97714.55;1703375;84;25789;-81
2021/10/23 10:16:55;;;;;;;5.60;2.05;;;;;;;10.49;46.89;97716.83;1700012;82;26350;-80
2021/10/23 10:19:22;;;;;;;5.55;1.65;;;;;;;10.55;46.57;97712.78;1686426;84;27447;-83
2021/10/23 10:21:52;;;;;;;7.28;2.05;;;;;;;10.56;46.41;97714.97;1686526;84;25878;-84
2021/10/23 10:24:26;;;;;;;7.17;2.42;;;;;;;10.51;46.01;97726.36;1686459;84;25250;-83
2021/10/23 10:27:12;;;;;;;4.72;1.50;;;;;;;10.53;46.40;97730.21;1686651;83;25822;-82
2021/10/23 10:29:56;;;;;;;3.65;1.70;;;;;;;10.65;46.45;97722.67;1686793;84;25729;-82
2021/10/23 10:32:39;;;;;;;4.50;1.77;;;;;;;10.80;46.56;97729.25;1686868;84;27406;-83
2021/10/23 10:35:24;;;;;;;6.85;1.92;;;;;;;10.92;46.26;97738.41;1686548;84;25286;-78
2021/10/23 10:43:14;;;;;;;9.13;1.75;;;;;;;10.64;45.66;97743.11;1703781;82;25791;-83
2021/10/23 10:45:51;;;;;;;7.67;1.87;;;;;;;10.34;45.84;97750.70;1703069;83;27448;-82
2021/10/23 10:48:34;;;;;;;5.97;1.85;;;;;;;10.21;46.06;97760.09;1703394;83;25732;-82
2021/10/23 10:51:07;;;;;;;6.62;1.62;;;;;;;10.11;46.23;97757.73;1699635;82;25763;-82
2021/10/23 10:53:38;;;;;;;6.75;1.80;;;;;;;10.02;46.38;97756.24;1686769;84;25835;-82
2021/10/23 10:56:14;;;;;;;7.45;1.85;;;;;;;9.96;46.46;97759.20;1687085;84;25843;-82
2021/10/23 10:58:56;;;;;;;10.70;3.00;;;;;;;9.96;46.52;97766.46;1687063;84;27447;-81
2021/10/23 11:01:31;;;;;;;10.50;2.33;;;;;;;9.86;46.48;97770.03;1686945;84;25782;-81
2021/10/23 11:04:11;;;;;;;6.17;1.90;;;;;;;9.77;46.52;97765.83;1683950;84;25309;-81
2021/10/23 11:06:44;;;;;;;5.40;1.90;;;;;;;9.75;46.61;97773.60;1692330;84;25748;-81
2021/10/23 11:09:20;;;;;;;12.10;2.62;;;;;;;9.75;46.59;97778.99;1664871;84;26592;-82
2021/10/23 11:11:59;;;;;;;9.38;2.83;;;;;;;9.73;46.55;97772.96;1692344;83;27458;-83
2021/10/23 11:14:34;;;;;;;9.00;2.60;;;;;;;9.69;46.49;97774.38;1692263;83;25304;-81
2021/10/23 11:17:12;;;;;;;7.80;2.50;;;;;;;9.68;46.49;97763.27;1692464;83;25986;-81
2021/10/23 11:19:51;;;;;;;8.33;3.05;;;;;;;9.68;46.59;97764.62;1692154;83;25795;-85
2021/10/23 11:22:29;;;;;;;12.85;3.20;;;;;;;9.74;46.35;97776.48;1687912;83;25853;-84
2021/10/23 11:25:08;;;;;;;14.43;4.40;;;;;;;9.69;46.09;97768.15;1678963;84;27444;-81
2021/10/23 11:27:49;;;;;;;14.05;5.30;;;;;;;9.67;46.10;97773.73;1692091;83;26062;-80
2021/10/23 11:30:30;;;;;;;9.40;2.33;;;;;;;9.67;46.22;97779.12;1692491;83;25700;-82
2021/10/23 11:33:06;;;;;;;8.33;2.60;;;;;;;9.71;46.06;97776.36;1692417;83;26665;-82
2021/10/23 11:35:51;;;;;;;10.10;3.92;;;;;;;9.96;46.40;97773.20;1692369;83;25815;-83
2021/10/23 11:38:28;;;;;;;10.48;4.47;;;;;;;10.25;46.20;97759.50;1692530;84;27347;-83
2021/10/23 11:41:00;;;;;;;21.20;6.67;;;;;;;10.46;45.57;97749.93;1694513;84;25741;-84
2021/10/23 11:43:38;;;;;;;12.82;3.58;;;;;;;10.55;45.49;97749.22;1697040;83;25853;-83
2021/10/23 11:46:05;;;;;;;5.85;2.65;;;;;;;10.92;45.42;97739.77;1697360;82;25814;-83
2021/10/23 11:48:31;;;;;;;4.83;2.10;;;;;;;11.42;44.93;97737.51;1696655;83;25851;-80
2021/10/23 11:50:57;;;;;;;6.58;1.82;;;;;;;11.77;45.40;97735.42;1692344;82;28628;-81
2021/10/23 11:53:30;;;;;;;6.15;1.98;;;;;;;12.18;44.83;97732.41;1694462;82;25810;-82